createdAt,value
2023-03-18T00:02:23.158Z,101100.48
2023-03-18T00:07:46.986Z,101090.06
2023-03-18T00:13:10.784Z,101094.69
2023-03-18T00:18:34.742Z,101095.16
2023-03-18T00:23:58.991Z,101090.06
2023-03-18T00:29:24.725Z,101077.09
2023-03-18T00:34:47.060Z,101078.33
2023-03-18T00:40:16.597Z,101074.80
2023-03-18T00:45:39.670Z,101061.83
2023-03-18T00:51:04.419Z,101059.45
2023-03-18T00:56:28.226Z,101057.89
2023-03-18T01:01:52.463Z,101058.27
2023-03-18T01:07:15.837Z,101038.44
2023-03-18T01:12:39.661Z,101039.81
2023-03-18T01:18:04.300Z,101035.01
2023-03-18T01:23:26.826Z,101038.13
2023-03-18T01:28:49.925Z,101044.36
2023-03-18T01:34:12.618Z,101040.18
2023-03-18T01:39:37.623Z,101033.37
2023-03-18T01:45:19.644Z,101036.95
2023-03-18T01:50:46.223Z,101036.09
2023-03-18T01:56:10.227Z,101033.54
2023-03-18T02:02:01.691Z,101029.70
2023-03-18T02:07:30.698Z,101029.64
2023-03-18T02:12:58.486Z,101032.42
2023-03-18T02:18:28.897Z,101037.37
2023-03-18T02:24:07.680Z,101024.30
2023-03-18T02:29:33.176Z,101021.13
2023-03-18T02:34:58.107Z,101024.36
2023-03-18T02:40:41.581Z,101027.75
2023-03-18T02:46:26.045Z,101025.38
2023-03-18T02:51:50.740Z,101029.66
2023-03-18T02:57:13.057Z,101019.06
2023-03-18T03:02:35.654Z,101014.77
2023-03-18T03:07:58.535Z,101021.98
2023-03-18T03:13:21.871Z,101024.30
2023-03-18T03:18:44.641Z,101015.64
2023-03-18T03:24:06.940Z,101010.11
2023-03-18T03:29:29.765Z,101017.08
2023-03-18T03:34:52.340Z,101016.16
2023-03-18T03:40:17.352Z,101013.05
2023-03-18T03:45:40.217Z,101009.34
2023-03-18T03:51:03.462Z,101008.45
2023-03-18T03:56:26.500Z,101010.05
2023-03-18T04:01:49.390Z,100988.70
2023-03-18T04:07:12.284Z,100988.83
2023-03-18T04:12:34.661Z,100986.30
2023-03-18T04:17:57.067Z,100990.63
2023-03-18T04:23:21.366Z,100992.19
2023-03-18T04:28:44.302Z,100998.22
2023-03-18T04:34:06.619Z,101002.54
2023-03-18T04:39:29.182Z,100997.17
2023-03-18T04:44:52.713Z,101005.19
2023-03-18T04:50:15.944Z,101008.64
2023-03-18T04:55:38.802Z,101008.61
2023-03-18T05:01:04.538Z,100998.22
2023-03-18T05:06:35.798Z,101002.80
2023-03-18T05:11:58.450Z,101007.27
2023-03-18T05:17:22.217Z,100997.59
2023-03-18T05:22:44.672Z,100989.34
2023-03-18T05:28:10.175Z,100996.20
2023-03-18T05:33:33.303Z,100985.59
2023-03-18T05:38:55.684Z,100974.92
2023-03-18T05:44:17.923Z,100969.48
2023-03-18T05:49:40.780Z,100961.39
2023-03-18T05:55:03.683Z,100958.70
2023-03-18T06:00:28.975Z,100970.91
2023-03-18T06:05:52.829Z,100956.48
2023-03-18T06:11:15.649Z,100953.48
2023-03-18T06:16:38.211Z,100955.84
2023-03-18T06:22:01.710Z,100960.70
2023-03-18T06:27:24.553Z,100974.15
2023-03-18T06:32:47.551Z,100976.34
2023-03-18T06:38:12.313Z,100978.37
2023-03-18T06:43:34.915Z,100983.89
2023-03-18T06:48:57.506Z,100970.86
2023-03-18T06:54:20.529Z,100978.09
2023-03-18T06:59:43.853Z,100982.84
2023-03-18T07:05:06.760Z,100991.48
2023-03-18T07:10:33.665Z,100997.25
2023-03-18T07:15:57.000Z,100994.91
2023-03-18T07:21:20.165Z,101003.31
2023-03-18T07:26:43.478Z,100997.95
2023-03-18T07:32:06.062Z,101010.30
2023-03-18T07:37:29.309Z,101007.17
2023-03-18T07:42:54.220Z,101015.73
2023-03-18T07:48:16.867Z,101006.41
2023-03-18T07:53:40.343Z,101000.25
2023-03-18T07:59:03.191Z,100995.98
2023-03-18T08:04:25.707Z,100993.57
2023-03-18T08:09:48.689Z,101009.55
2023-03-18T08:15:12.350Z,100997.47
2023-03-18T08:20:35.270Z,100990.98
2023-03-18T08:26:03.048Z,100986.32
2023-03-18T08:31:25.640Z,100980.98
2023-03-18T08:36:48.789Z,101000.54
2023-03-18T08:42:11.293Z,100984.57
2023-03-18T08:47:33.530Z,100983.63
2023-03-18T08:52:57.405Z,100972.12
2023-03-18T08:58:20.474Z,100972.16
2023-03-18T09:03:43.398Z,100977.41
2023-03-18T09:09:06.006Z,100975.69
2023-03-18T09:14:28.460Z,100962.61
2023-03-18T09:19:51.193Z,100973.73
2023-03-18T09:25:14.263Z,100959.05
2023-03-18T09:30:36.937Z,100970.06
2023-03-18T09:36:00.076Z,100971.69
2023-03-18T09:41:51.748Z,100963.24
2023-03-18T09:47:44.705Z,100958.31
2023-03-18T09:53:36.494Z,100950.95
2023-03-18T09:59:19.262Z,100944.23
2023-03-18T10:04:48.987Z,100945.05
2023-03-18T10:10:16.283Z,100937.38
2023-03-18T10:15:47.156Z,100937.77
2023-03-18T10:21:35.503Z,100932.70
2023-03-18T10:27:27.618Z,100930.88
2023-03-18T10:33:19.266Z,100937.84
2023-03-18T10:38:58.369Z,100934.94
2023-03-18T10:44:34.717Z,100911.37
2023-03-18T10:50:06.681Z,100908.52
2023-03-18T10:55:40.516Z,100914.56
2023-03-18T11:01:03.028Z,100908.20
2023-03-18T11:06:33.100Z,100917.59
2023-03-18T11:12:00.418Z,100910.86
2023-03-18T11:17:42.120Z,100914.72
2023-03-18T11:23:09.976Z,100914.52
2023-03-18T11:28:42.351Z,100902.62
2023-03-18T11:34:07.831Z,100899.25
2023-03-18T11:39:32.307Z,100910.40
2023-03-18T11:44:57.457Z,100902.34
2023-03-18T11:50:26.733Z,100893.81
2023-03-18T11:56:09.813Z,100877.48
2023-03-18T12:01:58.787Z,100877.17
2023-03-18T12:08:08.007Z,100882.03
2023-03-18T12:13:47.792Z,100884.95
2023-03-18T12:19:21.097Z,100881.94
2023-03-18T12:25:08.966Z,100876.83
2023-03-18T12:30:52.385Z,100874.34
2023-03-18T12:36:26.018Z,100878.86
2023-03-18T12:41:59.514Z,100884.13
2023-03-18T12:47:58.053Z,100880.14
2023-03-18T12:53:30.597Z,100873.11
2023-03-18T13:04:41.518Z,100886.47
2023-03-18T13:10:20.810Z,100882.58
2023-03-18T13:15:56.105Z,100879.56
2023-03-18T13:21:21.562Z,100881.81
2023-03-18T13:27:08.165Z,100887.85
2023-03-18T13:33:03.408Z,100882.09
2023-03-18T13:38:40.066Z,100881.27
2023-03-18T13:44:07.117Z,100881.58
2023-03-18T13:49:39.177Z,100881.12
2023-03-18T13:55:01.510Z,100876.33
2023-03-18T14:00:40.843Z,100877.77
2023-03-18T14:06:15.725Z,100873.56
2023-03-18T14:11:45.337Z,100869.92
2023-03-18T14:17:12.291Z,100882.01
2023-03-18T14:22:44.697Z,100873.25
2023-03-18T14:28:26.974Z,100868.12
2023-03-18T14:34:07.526Z,100866.38
2023-03-18T14:39:28.243Z,100871.90
2023-03-18T14:45:04.949Z,100863.63
2023-03-18T14:50:40.282Z,100853.29
2023-03-18T14:56:04.752Z,100842.36
2023-03-18T15:01:33.450Z,100845.41
2023-03-18T15:07:00.404Z,100850.73
2023-03-18T15:12:40.977Z,100856.20
2023-03-18T15:18:04.374Z,100847.84
2023-03-18T15:23:35.445Z,100854.09
2023-03-18T15:29:04.794Z,100849.38
2023-03-18T15:34:43.668Z,100858.31
2023-03-18T15:40:27.233Z,100851.58
2023-03-18T15:46:10.359Z,100850.61
2023-03-18T15:51:52.776Z,100854.25
2023-03-18T15:57:19.433Z,100848.39
2023-03-18T16:02:51.526Z,100846.63
2023-03-18T16:08:24.794Z,100858.88
2023-03-18T16:13:49.457Z,100854.55
2023-03-18T16:19:13.466Z,100854.52
2023-03-18T16:24:36.932Z,100865.25
2023-03-18T16:29:59.919Z,100858.98
2023-03-18T16:35:25.469Z,100865.86
2023-03-18T16:40:49.522Z,100872.77
2023-03-18T16:46:15.987Z,100863.80
2023-03-18T16:51:41.637Z,100859.44
2023-03-18T16:57:07.194Z,100863.11
2023-03-18T17:02:47.566Z,100873.45
2023-03-18T17:08:10.888Z,100876.60
2023-03-18T17:13:39.049Z,100886.56
2023-03-18T17:19:01.971Z,100886.30
2023-03-18T17:24:24.438Z,100892.77
2023-03-18T17:29:48.408Z,100889.84
2023-03-18T17:35:13.070Z,100887.38
2023-03-18T17:40:38.778Z,100895.85
2023-03-18T17:46:03.388Z,100901.89
2023-03-18T17:51:33.082Z,100908.50
2023-03-18T17:56:56.602Z,100898.84
2023-03-18T18:02:21.634Z,100909.02
2023-03-18T18:07:46.148Z,100908.55
2023-03-18T18:13:08.633Z,100906.25
2023-03-18T18:18:34.460Z,100902.33
2023-03-18T18:23:57.640Z,100899.28
2023-03-18T18:29:23.616Z,100909.07
2023-03-18T18:34:49.519Z,100908.21
2023-03-18T18:40:14.054Z,100903.54
2023-03-18T18:45:38.333Z,100902.98
2023-03-18T18:51:01.781Z,100910.81
2023-03-18T18:56:40.041Z,100904.87
2023-03-18T19:02:04.113Z,100898.30
2023-03-18T19:07:26.950Z,100913.58
2023-03-18T19:12:49.506Z,100910.70
2023-03-18T19:18:13.286Z,100912.28
2023-03-18T19:23:39.885Z,100912.86
2023-03-18T19:29:05.838Z,100919.13
2023-03-18T19:34:37.756Z,100922.95
2023-03-18T19:40:02.110Z,100914.41
2023-03-18T19:45:25.971Z,100923.05
2023-03-18T19:50:48.303Z,100919.63
2023-03-18T19:56:10.822Z,100918.69
2023-03-18T20:01:34.092Z,100926.12
2023-03-18T20:06:56.770Z,100928.95
2023-03-18T20:12:28.561Z,100920.95
2023-03-18T20:18:05.492Z,100918.28
2023-03-18T20:23:33.919Z,100919.86
2023-03-18T20:28:58.286Z,100922.24
2023-03-18T20:34:21.507Z,100922.50
2023-03-18T20:39:43.939Z,100922.30
2023-03-18T20:45:07.488Z,100917.36
2023-03-18T20:50:36.611Z,100924.23
2023-03-18T20:55:58.827Z,100922.83
2023-03-18T21:01:28.199Z,100915.63
2023-03-18T21:06:50.492Z,100916.16
2023-03-18T21:12:13.112Z,100915.53
2023-03-18T21:17:44.697Z,100920.80
2023-03-18T21:23:07.765Z,100919.86
2023-03-18T21:28:36.073Z,100919.75
2023-03-18T21:33:58.818Z,100918.63
2023-03-18T21:39:21.742Z,100919.58
2023-03-18T21:44:44.000Z,100913.41
2023-03-18T21:50:07.608Z,100910.31
2023-03-18T21:55:31.459Z,100913.67
2023-03-18T22:00:58.496Z,100908.50
2023-03-18T22:06:22.642Z,100900.81
2023-03-18T22:11:45.043Z,100898.88
2023-03-18T22:17:07.408Z,100901.84
2023-03-18T22:22:40.063Z,100904.73
2023-03-18T22:28:03.622Z,100898.01
2023-03-18T22:33:29.180Z,100904.14
2023-03-18T22:38:51.846Z,100905.86
2023-03-18T22:44:15.821Z,100906.47
2023-03-18T22:49:38.114Z,100906.77
2023-03-18T22:55:06.881Z,100905.14
2023-03-18T23:00:50.952Z,100902.13
2023-03-18T23:06:16.959Z,100903.06
2023-03-18T23:11:40.695Z,100903.15
2023-03-18T23:17:02.896Z,100897.39
2023-03-18T23:22:33.828Z,100905.38
2023-03-18T23:27:57.657Z,100910.81
2023-03-18T23:33:20.274Z,100911.70
2023-03-18T23:38:43.005Z,100905.95
2023-03-18T23:44:05.177Z,100907.80
2023-03-18T23:49:29.185Z,100915.66
2023-03-18T23:54:52.069Z,100919.86
